Impacts METAR Board
IDs:

KGRK - Killeen-Ft Hood Rgnl, TX, US

Updated at: 2000 UTC 02 Oct 2022
Potential Impact None Slight Moderate High
Time 02/08Z 02/09Z 02/10Z 02/11Z 02/12Z 02/13Z 02/14Z 02/15Z 02/16Z 02/17Z 02/18Z 02/19Z 02/20Z
Temp63 58 56 55 53 56 61 68 74 77 79 81 82
Dewpt42 42 42 42 41 41 41 46 49 47 42 44 39
Altim30.07 30.07 30.08 30.08 30.12 30.13 30.16 30.17 30.18 30.16 30.15 30.12 30.10
VIS10 10 10 10 10 10 10 10 10 10 10 10 10
CIG-- -- -- -- -- -- -- -- -- -- -- -- --
CoverCLRCLRCLRCLRCLRCLRCLRCLRCLRCLRCLRCLRCLR
FltCatVFRVFRVFRVFRVFRVFRVFRVFRVFRVFRVFRVFRVFR
WX--------------------------
WDir0000031050701200500150
WSpd0 0 0 0 0 3 4 5 7 0 4 0 5
WGst-- -- -- -- -- -- -- -- -- -- -- -- --
Raw hourly METARs
KGRK 020755Z AUTO 00000KT 10SM CLR 17/05 A3007 RMK AO2 SLP174 T01710054
KGRK 020855Z AUTO 00000KT 10SM CLR 15/06 A3007 RMK AO2 SLP174 T01470055 53002
KGRK 020955Z AUTO 00000KT 10SM CLR 13/06 A3008 RMK AO2 SLP179 T01320056
KGRK 021055Z AUTO 00000KT 10SM CLR 13/05 A3008 RMK AO2 SLP179 T01260053
KGRK 021155Z AUTO 00000KT 10SM CLR 12/05 A3012 RMK AO2 SLP193 T01160050 10179 20116 53014
KGRK 021255Z AUTO 31003KT 10SM CLR 14/05 A3013 RMK AO2 SLP197 T01350049
KGRK 021355Z AUTO 05004KT 10SM CLR 16/05 A3016 RMK AO2 LTG DSNT S SLP206 T01620049
KGRK 021455Z AUTO 07005KT 10SM CLR 20/08 A3017 RMK AO2 SLP209 T02020075 52019
KGRK 021555Z AUTO 12007KT 10SM CLR 24/09 A3018 RMK AO2 SLP211 T02360092
KGRK 021655Z AUTO 00000KT 10SM CLR 25/08 A3016 RMK AO2 SLP205 T02490084
KGRK 021755Z AUTO 05004KT 10SM CLR 26/05 A3015 RMK AO2 SLP202 T02630053 10265 20112 58008
KGRK 021855Z AUTO 00000KT 10SM CLR 27/06 A3012 RMK AO2 SLP191 T02700064
KGRK 021955Z AUTO 15005KT 10SM CLR 28/04 A3010 RMK AO2 SLP184 T02770040



Page loaded:  20:07 UTC  |   01:07 PM Pacific  |   02:07 PM Mountain  |   03:07 PM Central  |   04:07 PM Eastern

 

ADVISORIES

FORECASTS

FORECASTS

OBSERVATIONS

USER TOOLS

ABOUT US